sensor_id;sensor_type;location;lat;lon;timestamp;P1;durP1;ratioP1;P2;durP2;ratioP2
75603;SDS011;64187;51.010;13.792;2023-04-24T00:03:37;5.18;;;4.32;;
75603;SDS011;64187;51.010;13.792;2023-04-24T00:08:37;4.72;;;4.03;;
75603;SDS011;64187;51.010;13.792;2023-04-24T00:13:36;6.38;;;4.45;;
75603;SDS011;64187;51.010;13.792;2023-04-24T00:18:36;6.28;;;4.22;;
75603;SDS011;64187;51.010;13.792;2023-04-24T00:23:34;4.82;;;4.20;;
75603;SDS011;64187;51.010;13.792;2023-04-24T00:28:33;4.78;;;4.38;;
75603;SDS011;64187;51.010;13.792;2023-04-24T00:33:34;5.30;;;4.20;;
75603;SDS011;64187;51.010;13.792;2023-04-24T00:38:33;5.97;;;4.13;;
75603;SDS011;64187;51.010;13.792;2023-04-24T00:43:32;5.88;;;4.38;;
75603;SDS011;64187;51.010;13.792;2023-04-24T00:48:31;6.82;;;4.70;;
75603;SDS011;64187;51.010;13.792;2023-04-24T00:53:30;7.57;;;4.32;;
75603;SDS011;64187;51.010;13.792;2023-04-24T00:58:29;4.75;;;4.25;;
75603;SDS011;64187;51.010;13.792;2023-04-24T01:03:29;6.38;;;4.38;;
75603;SDS011;64187;51.010;13.792;2023-04-24T01:08:30;5.32;;;4.00;;
75603;SDS011;64187;51.010;13.792;2023-04-24T01:13:29;6.13;;;3.97;;
75603;SDS011;64187;51.010;13.792;2023-04-24T01:18:29;5.57;;;4.75;;
75603;SDS011;64187;51.010;13.792;2023-04-24T01:23:29;6.65;;;4.68;;
75603;SDS011;64187;51.010;13.792;2023-04-24T01:28:30;6.05;;;4.88;;
75603;SDS011;64187;51.010;13.792;2023-04-24T01:33:29;4.53;;;3.88;;
75603;SDS011;64187;51.010;13.792;2023-04-24T01:38:28;5.07;;;3.88;;
75603;SDS011;64187;51.010;13.792;2023-04-24T01:43:27;6.30;;;3.92;;
75603;SDS011;64187;51.010;13.792;2023-04-24T01:48:28;5.90;;;4.55;;
75603;SDS011;64187;51.010;13.792;2023-04-24T01:53:28;5.18;;;4.68;;
75603;SDS011;64187;51.010;13.792;2023-04-24T01:58:27;7.20;;;4.82;;
75603;SDS011;64187;51.010;13.792;2023-04-24T02:03:27;6.72;;;4.70;;
75603;SDS011;64187;51.010;13.792;2023-04-24T02:08:28;7.90;;;5.25;;
75603;SDS011;64187;51.010;13.792;2023-04-24T02:13:27;8.13;;;5.38;;
75603;SDS011;64187;51.010;13.792;2023-04-24T02:18:26;7.88;;;5.00;;
75603;SDS011;64187;51.010;13.792;2023-04-24T02:23:25;6.43;;;4.93;;
75603;SDS011;64187;51.010;13.792;2023-04-24T02:28:25;7.25;;;4.97;;
75603;SDS011;64187;51.010;13.792;2023-04-24T02:33:24;8.65;;;5.25;;
75603;SDS011;64187;51.010;13.792;2023-04-24T02:38:23;6.63;;;4.85;;
75603;SDS011;64187;51.010;13.792;2023-04-24T02:43:22;7.47;;;5.13;;
75603;SDS011;64187;51.010;13.792;2023-04-24T02:48:21;6.25;;;4.30;;
75603;SDS011;64187;51.010;13.792;2023-04-24T02:53:20;5.40;;;4.80;;
75603;SDS011;64187;51.010;13.792;2023-04-24T02:58:19;5.50;;;4.45;;
75603;SDS011;64187;51.010;13.792;2023-04-24T03:03:18;5.90;;;4.65;;
75603;SDS011;64187;51.010;13.792;2023-04-24T03:08:17;7.72;;;5.00;;
75603;SDS011;64187;51.010;13.792;2023-04-24T03:13:16;6.47;;;4.68;;
75603;SDS011;64187;51.010;13.792;2023-04-24T03:18:15;8.25;;;5.57;;
75603;SDS011;64187;51.010;13.792;2023-04-24T03:23:14;8.63;;;5.50;;
75603;SDS011;64187;51.010;13.792;2023-04-24T03:28:14;9.73;;;5.53;;
75603;SDS011;64187;51.010;13.792;2023-04-24T03:33:16;7.30;;;5.28;;
75603;SDS011;64187;51.010;13.792;2023-04-24T03:38:25;8.80;;;5.47;;
75603;SDS011;64187;51.010;13.792;2023-04-24T03:43:34;6.05;;;4.60;;
75603;SDS011;64187;51.010;13.792;2023-04-24T03:48:33;7.22;;;5.18;;
75603;SDS011;64187;51.010;13.792;2023-04-24T03:53:33;7.68;;;5.25;;
75603;SDS011;64187;51.010;13.792;2023-04-24T03:58:32;5.68;;;4.50;;
75603;SDS011;64187;51.010;13.792;2023-04-24T04:03:31;6.93;;;5.63;;
75603;SDS011;64187;51.010;13.792;2023-04-24T04:08:31;8.38;;;5.78;;
75603;SDS011;64187;51.010;13.792;2023-04-24T04:13:29;6.47;;;4.88;;
75603;SDS011;64187;51.010;13.792;2023-04-24T04:18:29;6.32;;;5.13;;
75603;SDS011;64187;51.010;13.792;2023-04-24T04:23:28;9.98;;;5.60;;
75603;SDS011;64187;51.010;13.792;2023-04-24T04:29:00;7.78;;;5.03;;
75603;SDS011;64187;51.010;13.792;2023-04-24T04:34:00;5.35;;;3.22;;
75603;SDS011;64187;51.010;13.792;2023-04-24T04:39:02;4.90;;;3.47;;
75603;SDS011;64187;51.010;13.792;2023-04-24T04:44:25;4.57;;;4.07;;
75603;SDS011;64187;51.010;13.792;2023-04-24T04:49:29;4.63;;;4.03;;
75603;SDS011;64187;51.010;13.792;2023-04-24T04:54:30;4.50;;;3.65;;
75603;SDS011;64187;51.010;13.792;2023-04-24T04:59:29;4.35;;;3.58;;
75603;SDS011;64187;51.010;13.792;2023-04-24T05:04:34;10.00;;;4.03;;
75603;SDS011;64187;51.010;13.792;2023-04-24T05:09:33;8.68;;;4.55;;
75603;SDS011;64187;51.010;13.792;2023-04-24T05:14:35;4.95;;;4.45;;
75603;SDS011;64187;51.010;13.792;2023-04-24T05:19:35;5.30;;;3.65;;
75603;SDS011;64187;51.010;13.792;2023-04-24T05:24:37;3.80;;;2.63;;
75603;SDS011;64187;51.010;13.792;2023-04-24T05:29:51;3.42;;;3.13;;
75603;SDS011;64187;51.010;13.792;2023-04-24T05:34:50;6.18;;;2.67;;
75603;SDS011;64187;51.010;13.792;2023-04-24T05:39:49;3.85;;;2.00;;
75603;SDS011;64187;51.010;13.792;2023-04-24T05:44:47;5.13;;;1.88;;
75603;SDS011;64187;51.010;13.792;2023-04-24T05:49:51;2.80;;;1.83;;
75603;SDS011;64187;51.010;13.792;2023-04-24T05:54:50;3.38;;;1.45;;
75603;SDS011;64187;51.010;13.792;2023-04-24T05:59:53;1.50;;;1.40;;
75603;SDS011;64187;51.010;13.792;2023-04-24T06:04:53;1.40;;;1.30;;
75603;SDS011;64187;51.010;13.792;2023-04-24T06:09:52;1.83;;;1.33;;
75603;SDS011;64187;51.010;13.792;2023-04-24T06:14:52;3.03;;;1.30;;
75603;SDS011;64187;51.010;13.792;2023-04-24T06:19:56;2.95;;;1.15;;
75603;SDS011;64187;51.010;13.792;2023-04-24T06:24:56;1.10;;;1.00;;
75603;SDS011;64187;51.010;13.792;2023-04-24T06:29:55;5.55;;;2.40;;
75603;SDS011;64187;51.010;13.792;2023-04-24T06:34:54;3.70;;;1.80;;
75603;SDS011;64187;51.010;13.792;2023-04-24T06:39:55;1.90;;;1.30;;
75603;SDS011;64187;51.010;13.792;2023-04-24T06:44:54;2.50;;;1.30;;
75603;SDS011;64187;51.010;13.792;2023-04-24T06:49:53;1.13;;;1.08;;
75603;SDS011;64187;51.010;13.792;2023-04-24T06:54:52;1.40;;;1.20;;
75603;SDS011;64187;51.010;13.792;2023-04-24T06:59:50;3.13;;;1.10;;
75603;SDS011;64187;51.010;13.792;2023-04-24T07:04:49;1.00;;;0.90;;
75603;SDS011;64187;51.010;13.792;2023-04-24T07:09:48;1.27;;;1.00;;
75603;SDS011;64187;51.010;13.792;2023-04-24T07:14:49;1.50;;;1.20;;
75603;SDS011;64187;51.010;13.792;2023-04-24T07:19:49;1.00;;;1.00;;
75603;SDS011;64187;51.010;13.792;2023-04-24T07:24:48;1.33;;;1.02;;
75603;SDS011;64187;51.010;13.792;2023-04-24T07:29:47;2.00;;;1.00;;
75603;SDS011;64187;51.010;13.792;2023-04-24T07:34:46;2.53;;;1.27;;
75603;SDS011;64187;51.010;13.792;2023-04-24T07:39:44;0.88;;;0.50;;
75603;SDS011;64187;51.010;13.792;2023-04-24T07:44:43;2.08;;;1.30;;
75603;SDS011;64187;51.010;13.792;2023-04-24T07:49:44;1.52;;;0.98;;
75603;SDS011;64187;51.010;13.792;2023-04-24T07:54:43;2.05;;;1.13;;
75603;SDS011;64187;51.010;13.792;2023-04-24T07:59:43;2.25;;;1.08;;
75603;SDS011;64187;51.010;13.792;2023-04-24T08:04:42;1.48;;;1.00;;
75603;SDS011;64187;51.010;13.792;2023-04-24T08:09:41;1.13;;;1.02;;
75603;SDS011;64187;51.010;13.792;2023-04-24T08:14:40;1.02;;;0.80;;
75603;SDS011;64187;51.010;13.792;2023-04-24T08:19:39;0.82;;;0.80;;
75603;SDS011;64187;51.010;13.792;2023-04-24T08:24:46;2.00;;;0.90;;
75603;SDS011;64187;51.010;13.792;2023-04-24T08:29:45;2.15;;;1.05;;
75603;SDS011;64187;51.010;13.792;2023-04-24T08:34:44;1.02;;;1.02;;
75603;SDS011;64187;51.010;13.792;2023-04-24T08:39:46;0.80;;;0.77;;
75603;SDS011;64187;51.010;13.792;2023-04-24T08:44:45;1.88;;;1.10;;
75603;SDS011;64187;51.010;13.792;2023-04-24T08:49:44;1.20;;;1.10;;
75603;SDS011;64187;51.010;13.792;2023-04-24T08:54:44;1.38;;;0.80;;
75603;SDS011;64187;51.010;13.792;2023-04-24T08:59:45;1.20;;;0.70;;
75603;SDS011;64187;51.010;13.792;2023-04-24T09:04:45;2.50;;;0.80;;
75603;SDS011;64187;51.010;13.792;2023-04-24T09:09:45;2.38;;;0.70;;
75603;SDS011;64187;51.010;13.792;2023-04-24T09:14:45;0.80;;;0.80;;
75603;SDS011;64187;51.010;13.792;2023-04-24T09:19:44;1.30;;;0.98;;
75603;SDS011;64187;51.010;13.792;2023-04-24T09:24:44;0.70;;;0.70;;
75603;SDS011;64187;51.010;13.792;2023-04-24T09:29:53;1.55;;;1.10;;
75603;SDS011;64187;51.010;13.792;2023-04-24T09:35:12;1.73;;;0.90;;
75603;SDS011;64187;51.010;13.792;2023-04-24T09:40:19;1.42;;;1.10;;
75603;SDS011;64187;51.010;13.792;2023-04-24T09:45:20;1.77;;;0.95;;
75603;SDS011;64187;51.010;13.792;2023-04-24T09:50:19;1.83;;;1.00;;
75603;SDS011;64187;51.010;13.792;2023-04-24T09:55:20;0.95;;;0.95;;
75603;SDS011;64187;51.010;13.792;2023-04-24T10:00:21;4.18;;;1.75;;
75603;SDS011;64187;51.010;13.792;2023-04-24T10:05:28;0.98;;;0.80;;
75603;SDS011;64187;51.010;13.792;2023-04-24T10:10:30;1.10;;;0.68;;
75603;SDS011;64187;51.010;13.792;2023-04-24T10:15:30;1.45;;;0.85;;
75603;SDS011;64187;51.010;13.792;2023-04-24T10:20:30;3.17;;;1.00;;
75603;SDS011;64187;51.010;13.792;2023-04-24T10:25:30;1.05;;;0.50;;
75603;SDS011;64187;51.010;13.792;2023-04-24T10:35:34;1.65;;;0.57;;
75603;SDS011;64187;51.010;13.792;2023-04-24T10:40:36;2.15;;;1.00;;
75603;SDS011;64187;51.010;13.792;2023-04-24T10:45:35;1.77;;;0.93;;
75603;SDS011;64187;51.010;13.792;2023-04-24T10:55:47;1.00;;;0.98;;
75603;SDS011;64187;51.010;13.792;2023-04-24T11:00:55;0.85;;;0.63;;
75603;SDS011;64187;51.010;13.792;2023-04-24T11:06:02;1.48;;;0.98;;
75603;SDS011;64187;51.010;13.792;2023-04-24T11:11:04;1.58;;;0.93;;
75603;SDS011;64187;51.010;13.792;2023-04-24T11:16:12;0.93;;;0.82;;
75603;SDS011;64187;51.010;13.792;2023-04-24T11:21:12;2.78;;;0.88;;
75603;SDS011;64187;51.010;13.792;2023-04-24T11:36:34;0.93;;;0.93;;
75603;SDS011;64187;51.010;13.792;2023-04-24T11:41:34;1.13;;;0.80;;
75603;SDS011;64187;51.010;13.792;2023-04-24T11:46:33;1.13;;;1.00;;
75603;SDS011;64187;51.010;13.792;2023-04-24T11:51:33;1.90;;;1.10;;
75603;SDS011;64187;51.010;13.792;2023-04-24T11:56:46;0.93;;;0.93;;
75603;SDS011;64187;51.010;13.792;2023-04-24T12:01:46;1.73;;;0.73;;
75603;SDS011;64187;51.010;13.792;2023-04-24T12:07:04;1.13;;;0.98;;
75603;SDS011;64187;51.010;13.792;2023-04-24T12:12:03;1.10;;;1.00;;
75603;SDS011;64187;51.010;13.792;2023-04-24T12:17:05;0.90;;;0.90;;
75603;SDS011;64187;51.010;13.792;2023-04-24T12:22:04;1.40;;;1.30;;
75603;SDS011;64187;51.010;13.792;2023-04-24T12:27:04;1.73;;;1.00;;
75603;SDS011;64187;51.010;13.792;2023-04-24T12:32:03;2.38;;;1.20;;
75603;SDS011;64187;51.010;13.792;2023-04-24T12:37:09;1.17;;;0.77;;
75603;SDS011;64187;51.010;13.792;2023-04-24T12:42:09;1.65;;;1.33;;
75603;SDS011;64187;51.010;13.792;2023-04-24T12:47:10;0.90;;;0.80;;
75603;SDS011;64187;51.010;13.792;2023-04-24T12:52:10;1.77;;;1.15;;
75603;SDS011;64187;51.010;13.792;2023-04-24T12:57:09;1.33;;;1.23;;
75603;SDS011;64187;51.010;13.792;2023-04-24T13:02:08;1.30;;;1.20;;
75603;SDS011;64187;51.010;13.792;2023-04-24T13:07:08;1.58;;;1.30;;
75603;SDS011;64187;51.010;13.792;2023-04-24T13:12:07;2.13;;;0.68;;
75603;SDS011;64187;51.010;13.792;2023-04-24T13:17:07;2.17;;;1.48;;
75603;SDS011;64187;51.010;13.792;2023-04-24T13:22:06;1.67;;;1.00;;
75603;SDS011;64187;51.010;13.792;2023-04-24T13:27:05;1.20;;;0.90;;
75603;SDS011;64187;51.010;13.792;2023-04-24T13:32:04;1.52;;;1.25;;
75603;SDS011;64187;51.010;13.792;2023-04-24T13:37:03;1.20;;;1.10;;
75603;SDS011;64187;51.010;13.792;2023-04-24T13:42:03;1.67;;;1.58;;
75603;SDS011;64187;51.010;13.792;2023-04-24T13:47:02;2.60;;;1.17;;
75603;SDS011;64187;51.010;13.792;2023-04-24T13:52:01;3.10;;;1.33;;
75603;SDS011;64187;51.010;13.792;2023-04-24T13:57:01;1.60;;;1.10;;
75603;SDS011;64187;51.010;13.792;2023-04-24T14:02:01;1.33;;;1.23;;
75603;SDS011;64187;51.010;13.792;2023-04-24T14:07:00;1.33;;;1.23;;
75603;SDS011;64187;51.010;13.792;2023-04-24T14:12:00;1.20;;;1.10;;
75603;SDS011;64187;51.010;13.792;2023-04-24T14:17:00;1.92;;;1.23;;
75603;SDS011;64187;51.010;13.792;2023-04-24T14:22:00;2.15;;;1.50;;
75603;SDS011;64187;51.010;13.792;2023-04-24T14:26:58;3.38;;;1.60;;
75603;SDS011;64187;51.010;13.792;2023-04-24T14:31:58;0.80;;;0.80;;
75603;SDS011;64187;51.010;13.792;2023-04-24T14:36:57;1.60;;;1.48;;
75603;SDS011;64187;51.010;13.792;2023-04-24T14:41:57;1.98;;;1.50;;
75603;SDS011;64187;51.010;13.792;2023-04-24T14:46:56;1.83;;;1.55;;
75603;SDS011;64187;51.010;13.792;2023-04-24T14:51:55;6.97;;;1.67;;
75603;SDS011;64187;51.010;13.792;2023-04-24T14:56:54;1.25;;;1.15;;
75603;SDS011;64187;51.010;13.792;2023-04-24T15:01:55;2.25;;;1.40;;
75603;SDS011;64187;51.010;13.792;2023-04-24T15:07:12;1.45;;;1.25;;
75603;SDS011;64187;51.010;13.792;2023-04-24T15:12:11;1.00;;;0.90;;
75603;SDS011;64187;51.010;13.792;2023-04-24T15:17:10;4.85;;;1.40;;
75603;SDS011;64187;51.010;13.792;2023-04-24T15:22:09;1.70;;;1.30;;
75603;SDS011;64187;51.010;13.792;2023-04-24T15:27:11;1.40;;;1.30;;
75603;SDS011;64187;51.010;13.792;2023-04-24T15:32:10;2.28;;;1.15;;
75603;SDS011;64187;51.010;13.792;2023-04-24T15:37:09;1.55;;;1.45;;
75603;SDS011;64187;51.010;13.792;2023-04-24T15:42:08;3.20;;;1.55;;
75603;SDS011;64187;51.010;13.792;2023-04-24T15:47:07;1.42;;;1.33;;
75603;SDS011;64187;51.010;13.792;2023-04-24T15:52:05;1.77;;;1.67;;
75603;SDS011;64187;51.010;13.792;2023-04-24T15:57:04;1.40;;;1.30;;
75603;SDS011;64187;51.010;13.792;2023-04-24T16:02:03;1.73;;;1.63;;
75603;SDS011;64187;51.010;13.792;2023-04-24T16:07:02;1.73;;;1.30;;
75603;SDS011;64187;51.010;13.792;2023-04-24T16:12:01;1.77;;;1.33;;
75603;SDS011;64187;51.010;13.792;2023-04-24T16:17:00;1.92;;;1.55;;
75603;SDS011;64187;51.010;13.792;2023-04-24T16:22:00;2.92;;;1.30;;
75603;SDS011;64187;51.010;13.792;2023-04-24T16:27:00;2.05;;;1.95;;
75603;SDS011;64187;51.010;13.792;2023-04-24T16:31:59;1.70;;;1.35;;
75603;SDS011;64187;51.010;13.792;2023-04-24T16:36:58;1.60;;;1.50;;
75603;SDS011;64187;51.010;13.792;2023-04-24T16:41:57;2.38;;;1.40;;
75603;SDS011;64187;51.010;13.792;2023-04-24T16:46:57;1.75;;;1.60;;
75603;SDS011;64187;51.010;13.792;2023-04-24T16:51:56;1.90;;;1.25;;
75603;SDS011;64187;51.010;13.792;2023-04-24T16:56:56;3.20;;;1.30;;
75603;SDS011;64187;51.010;13.792;2023-04-24T17:01:55;1.55;;;1.33;;
75603;SDS011;64187;51.010;13.792;2023-04-24T17:06:54;1.30;;;0.88;;
75603;SDS011;64187;51.010;13.792;2023-04-24T17:11:53;1.10;;;1.00;;
75603;SDS011;64187;51.010;13.792;2023-04-24T17:16:52;1.60;;;1.13;;
75603;SDS011;64187;51.010;13.792;2023-04-24T17:21:51;1.92;;;1.83;;
75603;SDS011;64187;51.010;13.792;2023-04-24T17:26:50;3.90;;;1.23;;
75603;SDS011;64187;51.010;13.792;2023-04-24T17:31:53;1.38;;;1.27;;
75603;SDS011;64187;51.010;13.792;2023-04-24T17:36:52;2.45;;;1.10;;
75603;SDS011;64187;51.010;13.792;2023-04-24T17:41:58;1.08;;;1.08;;
75603;SDS011;64187;51.010;13.792;2023-04-24T17:46:57;1.20;;;0.82;;
75603;SDS011;64187;51.010;13.792;2023-04-24T17:51:55;1.83;;;1.27;;
75603;SDS011;64187;51.010;13.792;2023-04-24T17:56:54;2.20;;;1.00;;
75603;SDS011;64187;51.010;13.792;2023-04-24T18:01:54;0.88;;;0.80;;
75603;SDS011;64187;51.010;13.792;2023-04-24T18:06:53;1.27;;;0.70;;
75603;SDS011;64187;51.010;13.792;2023-04-24T18:11:52;0.80;;;0.80;;
75603;SDS011;64187;51.010;13.792;2023-04-24T18:16:51;1.02;;;0.80;;
75603;SDS011;64187;51.010;13.792;2023-04-24T18:21:50;10.90;;;1.23;;
75603;SDS011;64187;51.010;13.792;2023-04-24T18:26:48;0.70;;;0.70;;
75603;SDS011;64187;51.010;13.792;2023-04-24T18:31:47;1.10;;;0.90;;
75603;SDS011;64187;51.010;13.792;2023-04-24T18:36:47;3.35;;;1.10;;
75603;SDS011;64187;51.010;13.792;2023-04-24T18:41:45;2.05;;;0.80;;
75603;SDS011;64187;51.010;13.792;2023-04-24T18:46:44;2.10;;;0.60;;
75603;SDS011;64187;51.010;13.792;2023-04-24T18:51:43;3.17;;;0.90;;
75603;SDS011;64187;51.010;13.792;2023-04-24T18:56:51;1.58;;;0.80;;
75603;SDS011;64187;51.010;13.792;2023-04-24T19:01:50;0.90;;;0.90;;
75603;SDS011;64187;51.010;13.792;2023-04-24T19:06:49;2.00;;;0.85;;
75603;SDS011;64187;51.010;13.792;2023-04-24T19:11:48;1.83;;;0.63;;
75603;SDS011;64187;51.010;13.792;2023-04-24T19:16:47;0.77;;;0.77;;
75603;SDS011;64187;51.010;13.792;2023-04-24T19:21:46;0.98;;;0.90;;
75603;SDS011;64187;51.010;13.792;2023-04-24T19:26:47;1.38;;;1.10;;
75603;SDS011;64187;51.010;13.792;2023-04-24T19:31:46;1.98;;;0.75;;
75603;SDS011;64187;51.010;13.792;2023-04-24T19:36:45;0.90;;;0.90;;
75603;SDS011;64187;51.010;13.792;2023-04-24T19:41:44;0.90;;;0.90;;
75603;SDS011;64187;51.010;13.792;2023-04-24T19:46:42;1.33;;;1.23;;
75603;SDS011;64187;51.010;13.792;2023-04-24T19:51:41;1.38;;;1.27;;
75603;SDS011;64187;51.010;13.792;2023-04-24T19:56:40;1.08;;;1.00;;
75603;SDS011;64187;51.010;13.792;2023-04-24T20:01:39;1.20;;;1.10;;
75603;SDS011;64187;51.010;13.792;2023-04-24T20:06:40;1.10;;;1.00;;
75603;SDS011;64187;51.010;13.792;2023-04-24T20:11:39;2.50;;;1.35;;
75603;SDS011;64187;51.010;13.792;2023-04-24T20:16:38;1.30;;;1.20;;
75603;SDS011;64187;51.010;13.792;2023-04-24T20:21:38;1.25;;;1.15;;
75603;SDS011;64187;51.010;13.792;2023-04-24T20:26:36;1.65;;;1.38;;
75603;SDS011;64187;51.010;13.792;2023-04-24T20:31:36;3.30;;;1.52;;
75603;SDS011;64187;51.010;13.792;2023-04-24T20:36:35;1.75;;;1.58;;
75603;SDS011;64187;51.010;13.792;2023-04-24T20:41:34;2.65;;;1.42;;
75603;SDS011;64187;51.010;13.792;2023-04-24T20:46:33;2.03;;;1.50;;
75603;SDS011;64187;51.010;13.792;2023-04-24T20:51:32;2.15;;;1.30;;
75603;SDS011;64187;51.010;13.792;2023-04-24T20:56:31;2.47;;;1.73;;
75603;SDS011;64187;51.010;13.792;2023-04-24T21:01:30;1.80;;;1.52;;
75603;SDS011;64187;51.010;13.792;2023-04-24T21:06:29;3.88;;;1.77;;
75603;SDS011;64187;51.010;13.792;2023-04-24T21:11:29;1.55;;;1.20;;
75603;SDS011;64187;51.010;13.792;2023-04-24T21:16:28;2.53;;;1.90;;
75603;SDS011;64187;51.010;13.792;2023-04-24T21:21:27;2.40;;;1.60;;
75603;SDS011;64187;51.010;13.792;2023-04-24T21:26:26;2.00;;;1.80;;
75603;SDS011;64187;51.010;13.792;2023-04-24T21:32:39;2.40;;;1.85;;
75603;SDS011;64187;51.010;13.792;2023-04-24T21:37:38;2.75;;;1.90;;
75603;SDS011;64187;51.010;13.792;2023-04-24T21:42:38;2.22;;;2.03;;
75603;SDS011;64187;51.010;13.792;2023-04-24T21:47:37;2.50;;;1.70;;
75603;SDS011;64187;51.010;13.792;2023-04-24T21:52:36;3.95;;;1.75;;
75603;SDS011;64187;51.010;13.792;2023-04-24T21:57:34;3.35;;;2.17;;
75603;SDS011;64187;51.010;13.792;2023-04-24T22:02:33;3.28;;;1.80;;
75603;SDS011;64187;51.010;13.792;2023-04-24T22:07:32;2.78;;;1.95;;
75603;SDS011;64187;51.010;13.792;2023-04-24T22:12:33;2.78;;;1.63;;
75603;SDS011;64187;51.010;13.792;2023-04-24T22:17:33;3.70;;;2.30;;
75603;SDS011;64187;51.010;13.792;2023-04-24T22:22:33;2.85;;;1.85;;
75603;SDS011;64187;51.010;13.792;2023-04-24T22:27:32;1.52;;;1.30;;
75603;SDS011;64187;51.010;13.792;2023-04-24T22:32:33;3.92;;;2.15;;
75603;SDS011;64187;51.010;13.792;2023-04-24T22:37:32;3.17;;;2.05;;
75603;SDS011;64187;51.010;13.792;2023-04-24T22:42:30;3.63;;;1.55;;
75603;SDS011;64187;51.010;13.792;2023-04-24T22:47:29;3.45;;;3.17;;
75603;SDS011;64187;51.010;13.792;2023-04-24T22:52:29;4.30;;;1.63;;
75603;SDS011;64187;51.010;13.792;2023-04-24T22:57:27;2.85;;;2.42;;
75603;SDS011;64187;51.010;13.792;2023-04-24T23:02:27;3.05;;;1.70;;
75603;SDS011;64187;51.010;13.792;2023-04-24T23:07:26;2.78;;;2.47;;
75603;SDS011;64187;51.010;13.792;2023-04-24T23:12:26;3.58;;;2.30;;
75603;SDS011;64187;51.010;13.792;2023-04-24T23:17:26;4.22;;;2.13;;
75603;SDS011;64187;51.010;13.792;2023-04-24T23:22:24;4.55;;;2.55;;
75603;SDS011;64187;51.010;13.792;2023-04-24T23:27:25;3.70;;;2.58;;
75603;SDS011;64187;51.010;13.792;2023-04-24T23:32:24;3.80;;;2.38;;
75603;SDS011;64187;51.010;13.792;2023-04-24T23:37:23;2.70;;;2.22;;
75603;SDS011;64187;51.010;13.792;2023-04-24T23:42:22;2.78;;;2.28;;
75603;SDS011;64187;51.010;13.792;2023-04-24T23:47:20;3.55;;;2.10;;
75603;SDS011;64187;51.010;13.792;2023-04-24T23:52:19;2.97;;;2.38;;
75603;SDS011;64187;51.010;13.792;2023-04-24T23:57:18;3.75;;;2.63;;
